Weather at Douglas-Charles Airport

Public forecast

Using degrees Celsius for public forecast. Weather courtesy of forecast.io.

Current aviation weather report (METAR) for Douglas-Charles Airport

Report is more than 6 hours old.

2022/11/14 15:00 (retrieved 2 years ago)

TDPD 141500Z 11012G22KT 9999 BKN015 SCT034 FEW///CB 28/25 Q1015

Aviation forecast (TAF) for Douglas-Charles Airport

Forecast is more than 12 hours old.

2023/02/22 18:03 (retrieved 1 year ago)

TAF TDPD 221700Z 2218/2318 11012KT 9999 SCT020